Latest Weather Observations for Mount Hope

IDN60801

Issued at 5:02 pm EST Saturday 22 September 2018 (issued every 10 minutes, with the page automatically refreshed every 10 minutes)

About weather observations | Map of weather stations | Latest weather observations for NSW | Other Formats
Station Details ID: 049136 Name: MOUNT HOPE AWS Lat: -32.83 Lon: 145.88 Height: 209.0 m
Data from the previous 72 hours. | See also: Recent months at Mount Hope
Date/Time
EST
Temp
°C
App
Temp
°C
Dew
Point
°C
Rel
Hum
%
Delta-T
°C
Wind Press
QNH
hPa
Press
MSL
hPa
Rain since
9am
mm
Dir  Spd
km/h
Gust
km/h
Spd
kts
Gust
kts
22/05:00pm 24.3 - -0.1 20 11.3 - - - - - - - 0.0
22/04:30pm 24.9 - -0.3 19 11.6 - - - - - - - 0.0
22/04:00pm 24.6 - 0.2 20 11.3 - - - - - - - 0.0
22/03:30pm 25.2 - 1.3 21 11.4 - - - - - - - 0.0
22/03:00pm 24.6 - 1.5 22 11.0 - - - - - - - 0.0
22/02:30pm 24.1 - -0.2 20 11.2 - - - - - - - 0.0
22/02:00pm 23.3 - 1.0 23 10.4 - - - - - - - 0.0
22/01:30pm 24.5 - 2.6 24 10.6 - - - - - - - 0.0
22/01:00pm 23.2 - 2.7 26 9.9 - - - - - - - 0.0
22/12:30pm 22.8 - 2.8 27 9.6 - - - - - - - 0.0
22/12:00pm 21.3 - 3.0 30 8.8 - - - - - - - 0.0
22/11:30am 21.3 - 3.5 31 8.6 - - - - - - - 0.0
22/11:00am 21.4 - 3.6 31 8.6 - - - - - - - 0.0
22/10:30am 20.8 - 2.6 30 8.6 - - - - - - - 0.0
22/10:00am 20.3 - 1.7 29 8.6 - - - - - - - 0.0
22/09:30am 20.3 - 1.7 29 8.6 - - - - - - - 0.0
22/09:00am 18.9 - 1.4 31 8.0 - - - - - - - 0.0
22/08:30am 16.7 - 1.2 35 6.9 - - - - - - - 0.0
22/08:00am 14.2 - 1.5 42 5.6 - - - - - - - 0.0
22/07:30am 11.5 - 0.3 46 4.7 - - - - - - - 0.0
22/07:00am 8.3 - -2.0 48 3.9 - - - - - - - 0.0
22/06:30am 6.5 - -3.2 50 3.5 - - - - - - - 0.0
22/06:00am 5.7 - -4.2 49 3.5 - - - - - - - 0.0
22/05:30am 5.7 - -3.9 50 3.4 - - - - - - - 0.0
22/05:00am 5.9 - -4.5 47 3.6 - - - - - - - 0.0
22/04:30am 6.5 - -4.6 45 3.9 - - - - - - - 0.0
22/04:00am 7.2 - -4.5 43 4.1 - - - - - - - 0.0
22/03:30am 7.5 - -3.9 44 4.1 - - - - - - - 0.0
22/03:00am 7.1 - -4.3 44 4.0 - - - - - - - 0.0
22/02:30am 7.2 - -4.2 44 4.1 - - - - - - - 0.0
22/02:00am 7.2 - -4.2 44 4.1 - - - - - - - 0.0
22/01:30am 7.2 - -4.2 44 4.1 - - - - - - - 0.0
22/01:00am 7.0 - -4.7 43 4.1 - - - - - - - 0.0
22/12:30am 7.0 - -5.3 41 4.3 - - - - - - - 0.0
22/12:00am 7.4 - -5.0 41 4.3 - - - - - - - 0.0
 
Date/Time
EST
Temp
°C
App
Temp
°C
Dew
Point
°C
Rel
Hum
%
Delta-T
°C
Wind Press
QNH
hPa
Press
MSL
hPa
Rain since
9am
mm
Dir  Spd
km/h
Gust
km/h
Spd
kts
Gust
kts
21/11:30pm 7.9 - -4.5 41 4.4 - - - - - - - 0.0
21/11:00pm 7.9 - -4.5 41 4.4 - - - - - - - 0.0
21/10:30pm 8.4 - -4.7 39 4.7 - - - - - - - 0.0
21/10:00pm 9.2 - -4.7 37 5.0 - - - - - - - 0.0
21/09:30pm 10.2 - -4.6 35 5.4 - - - - - - - 0.0
21/09:00pm 11.4 - -3.9 34 5.8 - - - - - - - 0.0
21/08:30pm 12.0 - -3.8 33 6.0 - - - - - - - 0.0
21/08:00pm 13.1 - -3.2 32 6.4 - - - - - - - 0.0
21/07:30pm 14.9 - -3.4 28 7.3 - - - - - - - 0.0
21/07:00pm 17.0 - -2.1 27 8.0 - - - - - - - 0.0
21/06:30pm 19.4 - -0.6 26 8.8 - - - - - - - 0.0
21/06:00pm 20.8 - -0.5 24 9.5 - - - - - - - 0.0
21/05:30pm 22.2 - -1.1 21 10.4 - - - - - - - 0.0
21/05:00pm 22.5 - -1.6 20 10.7 - - - - - - - 0.0
21/04:30pm 22.6 - -1.5 20 10.7 - - - - - - - 0.0
21/04:00pm 22.9 - -1.2 20 10.8 - - - - - - - 0.0
21/03:30pm 22.8 - -1.3 20 10.7 - - - - - - - 0.0
21/03:00pm 22.6 - -1.5 20 10.7 - - - - - - - 0.0
21/02:30pm 22.8 - -1.3 20 10.7 - - - - - - - 0.0
21/02:00pm 22.2 - -1.1 21 10.4 - - - - - - - 0.0
21/01:30pm 21.7 - -0.9 22 10.1 - - - - - - - 0.0
21/01:00pm 21.2 - -1.3 22 9.9 - - - - - - - 0.0
21/12:30pm 20.3 - -0.9 24 9.3 - - - - - - - 0.0
21/12:00pm 20.1 - -1.1 24 9.3 - - - - - - - 0.0
21/11:30am 19.2 - -0.7 26 8.7 - - - - - - - 0.0
21/11:00am 18.8 - -0.6 27 8.5 - - - - - - - 0.0
21/10:30am 18.3 - -0.5 28 8.2 - - - - - - - 0.0
21/10:00am 18.3 - 0.0 29 8.1 - - - - - - - 0.0
21/09:30am 17.2 - -1.4 28 7.9 - - - - - - - 0.0
21/09:00am 16.6 - -1.5 29 7.6 - - - - - - - 0.0
21/08:30am 15.5 - -1.1 32 7.0 - - - - - - - 0.0
21/08:00am 14.0 - -1.2 35 6.3 - - - - - - - 0.0
21/07:30am 10.0 - -3.3 39 5.0 - - - - - - - 0.0
21/07:28am 9.4 - -3.8 39 4.9 - - - - - - - 0.0
21/07:00am 4.3 - -6.0 47 3.4 - - - - - - - 0.0
21/06:30am 1.0 - -6.5 57 2.4 - - - - - - - 0.0
21/06:00am 0.7 - -6.8 57 2.4 - - - - - - - 0.0
21/05:30am 0.5 - -7.5 55 2.4 - - - - - - - 0.0
21/05:00am 1.0 - -7.0 55 2.5 - - - - - - - 0.0
21/04:30am 1.0 - -6.8 56 2.5 - - - - - - - 0.0
21/04:00am 1.5 - -6.8 54 2.7 - - - - - - - 0.0
21/03:30am 1.7 - -7.1 52 2.8 - - - - - - - 0.0
21/03:00am 1.8 - -6.7 53 2.8 - - - - - - - 0.0
21/02:30am 2.1 - -7.2 50 3.0 - - - - - - - 0.0
21/02:00am 2.6 - -6.5 51 3.0 - - - - - - - 0.0
21/01:30am 2.5 - -6.3 52 2.9 - - - - - - - 0.0
21/01:00am 3.0 - -6.6 49 3.2 - - - - - - - 0.0
21/12:30am 3.4 - -6.3 49 3.1 - - - - - - - 0.0
21/12:00am 3.8 - -5.6 50 3.1 - - - - - - - 0.0
 
Date/Time
EST
Temp
°C
App
Temp
°C
Dew
Point
°C
Rel
Hum
%
Delta-T
°C
Wind Press
QNH
hPa
Press
MSL
hPa
Rain since
9am
mm
Dir  Spd
km/h
Gust
km/h
Spd
kts
Gust
kts
20/11:30pm 4.4 - -5.6 48 3.3 - - - - - - - 0.0
20/11:00pm 4.9 - -5.4 47 3.5 - - - - - - - 0.0
20/10:30pm 5.4 - -5.6 45 3.7 - - - - - - - 0.0
20/10:00pm 6.2 - -4.5 46 3.7 - - - - - - - 0.0
20/09:30pm 7.0 - -5.0 42 4.2 - - - - - - - 0.0
20/09:00pm 8.1 - -5.3 38 4.7 - - - - - - - 0.0
20/08:30pm 9.7 - -4.3 37 5.1 - - - - - - - 0.0
20/08:00pm 11.4 - -3.1 36 5.6 - - - - - - - 0.0
20/07:30pm 13.7 - -1.9 34 6.3 - - - - - - - 0.0
20/07:00pm 15.1 - -1.9 31 7.0 - - - - - - - 0.0
20/06:30pm 16.1 - -1.5 30 7.4 - - - - - - - 0.0
20/06:00pm 17.0 - -1.6 28 7.8 - - - - - - - 0.0
20/05:30pm 17.9 - -1.3 27 8.2 - - - - - - - 0.0
20/05:00pm 18.5 - -1.3 26 8.5 - - - - - - - 0.0
20/04:30pm 18.6 - -1.8 25 8.7 - - - - - - - 0.0
20/04:00pm 18.7 - -1.7 25 8.7 - - - - - - - 0.0
20/03:30pm 18.9 - -1.0 26 8.6 - - - - - - - 0.0
20/03:00pm 18.8 - -1.1 26 8.6 - - - - - - - 0.0
20/02:30pm 18.8 - -0.1 28 8.3 - - - - - - - 0.0
20/02:00pm 18.1 - -0.2 29 8.0 - - - - - - - 0.0
20/01:30pm 17.8 - 0.0 30 7.8 - - - - - - - 0.0
20/01:00pm 17.8 - -0.5 29 7.9 - - - - - - - 0.0
20/12:30pm 17.4 - 0.1 31 7.6 - - - - - - - 0.0
20/12:00pm 16.3 - 0.4 34 6.9 - - - - - - - 0.0
20/11:30am 16.6 - 0.7 34 7.0 - - - - - - - 0.0
20/11:00am 15.8 - 0.4 35 6.7 - - - - - - - 0.0
20/10:30am 15.4 - 0.4 36 6.5 - - - - - - - 0.0
20/10:00am 14.7 - 1.3 40 5.9 - - - - - - - 0.0
20/09:30am 14.0 - 2.3 45 5.2 - - - - - - - 0.0
20/09:00am 13.0 - 2.6 49 4.6 - - - - - - - 0.0
20/08:30am 11.8 - 2.3 52 4.1 - - - - - - - 0.0
20/08:00am 11.0 - 2.3 55 3.8 - - - - - - - 0.0
20/07:30am 10.2 - 2.1 57 3.5 - - - - - - - 0.0
20/07:00am 8.1 - 0.8 60 3.0 - - - - - - - 0.0
20/06:30am 6.8 - -0.4 60 2.8 - - - - - - - 0.0
20/06:00am 8.2 - 0.2 57 3.2 - - - - - - - 0.0
20/05:30am 9.5 - 0.9 55 3.6 - - - - - - - 0.0
20/05:00am 9.8 - 0.9 54 3.7 - - - - - - - 0.0
20/04:30am 8.7 - -0.1 54 3.5 - - - - - - - 0.0
20/04:00am 9.3 - 0.0 52 3.8 - - - - - - - 0.0
20/03:30am 9.4 - -0.2 51 3.9 - - - - - - - 0.0
20/03:00am 9.1 - -1.6 47 4.2 - - - - - - - 0.0
20/02:30am 9.5 - -1.2 47 4.2 - - - - - - - 0.0
20/02:00am 5.3 - -5.7 45 3.7 - - - - - - - 0.0
20/01:30am 5.7 - -5.9 43 3.9 - - - - - - - 0.0
20/01:00am 5.9 - -5.4 44 3.8 - - - - - - - 0.0
20/12:30am 5.0 - -6.2 44 3.7 - - - - - - - 0.0
20/12:00am 5.2 - -6.3 43 3.8 - - - - - - - 0.0
 
Date/Time
EST
Temp
°C
App
Temp
°C
Dew
Point
°C
Rel
Hum
%
Delta-T
°C
Wind Press
QNH
hPa
Press
MSL
hPa
Rain since
9am
mm
Dir  Spd
km/h
Gust
km/h
Spd
kts
Gust
kts
19/11:30pm 5.4 - -6.2 43 3.8 - - - - - - - 0.0
19/11:00pm 5.8 - -6.7 40 4.1 - - - - - - - 0.0
19/10:30pm 6.7 - -6.3 39 4.4 - - - - - - - 0.0
19/10:00pm 6.8 - -6.5 38 4.4 - - - - - - - 0.0
19/09:30pm 7.9 - -5.5 38 4.7 - - - - - - - 0.0
19/09:00pm 9.2 - -5.4 35 5.2 - - - - - - - 0.0
19/08:30pm 11.4 - -4.3 33 5.9 - - - - - - - 0.0
19/08:00pm 12.8 - -3.9 31 6.4 - - - - - - - 0.0
19/07:30pm 13.6 - -4.1 29 6.8 - - - - - - - 0.0
19/07:00pm 14.2 - -4.0 28 7.1 - - - - - - - 0.0
19/06:30pm 14.8 - -4.5 26 7.5 - - - - - - - 0.0
19/06:00pm 15.6 - -5.4 23 8.0 - - - - - - - 0.0
19/05:30pm 16.6 - -6.4 20 8.7 - - - - - - - 0.0

Other Formats:

Comma delimited format used in spreadsheet applications
http://www.bom.gov.au/fwo/IDN60801/IDN60801.95682.axf

JavaScript Object Notation format (JSON) in row-major order
http://www.bom.gov.au/fwo/IDN60801/IDN60801.95682.json